Time;durP1;ratioP1;P1;durP2;ratioP2;P2;SDS_P1;SDS_P2;PMS_P1;PMS_P2;Temp;Humidity;BMP_temperature;BMP_pressure;BME280_temperature;BME280_humidity;BME280_pressure;Samples;Min_cycle;Max_cycle;Signal;HPM_P1;HPM_P2
2023/12/12 00:01:54;;;;;;;11.82;4.28;;;8.90;99.90;;;;;;5115927;28;20031;-66
2023/12/12 00:04:20;;;;;;;9.52;3.72;;;8.90;99.90;;;;;;5115015;28;20028;-65
2023/12/12 00:06:45;;;;;;;8.50;3.63;;;8.90;99.90;;;;;;5115883;28;20043;-65
2023/12/12 00:09:11;;;;;;;10.48;3.60;;;8.90;99.90;;;;;;5115852;28;20035;-66
2023/12/12 00:11:37;;;;;;;8.80;4.05;;;8.80;99.90;;;;;;5115772;28;20036;-67
2023/12/12 00:14:02;;;;;;;9.23;3.50;;;8.80;99.90;;;;;;5115779;28;20016;-66
2023/12/12 00:16:28;;;;;;;9.60;4.10;;;8.80;99.90;;;;;;5115837;28;20460;-65
2023/12/12 00:18:53;;;;;;;10.18;3.70;;;8.70;99.90;;;;;;5115802;28;20020;-66
2023/12/12 00:21:19;;;;;;;9.45;3.13;;;8.70;99.90;;;;;;5115584;28;20488;-67
2023/12/12 00:23:45;;;;;;;11.70;3.83;;;8.60;99.90;;;;;;5115557;28;20024;-66
2023/12/12 00:26:12;;;;;;;9.68;3.38;;;8.60;99.90;;;;;;5115553;28;20036;-66
2023/12/12 00:28:39;;;;;;;8.30;3.75;;;8.60;99.90;;;;;;5115462;28;20036;-65
2023/12/12 00:31:05;;;;;;;10.20;3.60;;;8.50;99.90;;;;;;5115311;28;20035;-65
2023/12/12 00:33:31;;;;;;;10.88;3.45;;;8.50;99.90;;;;;;5115522;28;20032;-66
2023/12/12 00:35:59;;;;;;;8.68;3.10;;;8.50;99.90;;;;;;5115373;28;20043;-66
2023/12/12 00:38:28;;;;;;;9.65;3.38;;;8.50;99.90;;;;;;5115472;28;20062;-66
2023/12/12 00:40:55;;;;;;;7.70;3.42;;;8.40;99.90;;;;;;5115252;28;20116;-65
2023/12/12 00:43:22;;;;;;;10.23;3.47;;;8.40;99.90;;;;;;5115229;28;20024;-66
2023/12/12 00:45:48;;;;;;;13.57;3.47;;;8.30;99.90;;;;;;5115266;28;20020;-66
2023/12/12 00:48:13;;;;;;;9.57;3.75;;;8.30;99.90;;;;;;5115241;28;20024;-66
2023/12/12 00:50:39;;;;;;;8.18;3.22;;;8.30;99.90;;;;;;5115168;28;20047;-67
2023/12/12 00:53:05;;;;;;;12.98;3.95;;;8.30;99.90;;;;;;5114912;28;20036;-66
2023/12/12 00:55:31;;;;;;;12.55;3.60;;;8.20;99.90;;;;;;5115063;28;20073;-66
2023/12/12 00:57:57;;;;;;;8.43;3.03;;;8.20;99.90;;;;;;5114990;28;20012;-66
2023/12/12 01:00:22;;;;;;;8.57;3.72;;;8.10;99.90;;;;;;5114717;28;20459;-66
2023/12/12 01:02:48;;;;;;;10.02;3.92;;;8.10;99.90;;;;;;5114916;28;20070;-66
2023/12/12 01:05:14;;;;;;;8.48;3.00;;;8.10;99.90;;;;;;5114906;28;20110;-66
2023/12/12 01:07:40;;;;;;;8.27;3.40;;;8.10;99.90;;;;;;5114903;28;20040;-66
2023/12/12 01:10:06;;;;;;;8.77;3.80;;;8.00;99.90;;;;;;5114775;28;20027;-66
2023/12/12 01:12:32;;;;;;;8.52;3.72;;;8.00;99.90;;;;;;5113698;28;20020;-66
2023/12/12 01:15:00;;;;;;;8.10;3.53;;;7.90;99.90;;;;;;5114810;28;20028;-65
2023/12/12 01:17:27;;;;;;;12.57;3.83;;;7.90;99.90;;;;;;5114662;28;20031;-66
2023/12/12 01:19:53;;;;;;;12.52;3.97;;;7.90;99.90;;;;;;5114610;28;20054;-66
2023/12/12 01:22:19;;;;;;;9.77;4.50;;;7.80;99.90;;;;;;5114729;28;20032;-66
2023/12/12 01:24:44;;;;;;;9.05;3.70;;;7.80;99.90;;;;;;5114469;28;20028;-66
2023/12/12 01:27:10;;;;;;;7.65;3.45;;;7.70;99.90;;;;;;5114471;28;20039;-65
2023/12/12 01:29:36;;;;;;;8.82;3.33;;;7.70;99.90;;;;;;5114306;28;20028;-66
2023/12/12 01:32:02;;;;;;;12.68;3.85;;;7.70;99.90;;;;;;5113220;28;20161;-66
2023/12/12 01:34:28;;;;;;;11.70;3.55;;;7.60;99.90;;;;;;5114419;28;20079;-65
2023/12/12 01:36:53;;;;;;;13.60;4.20;;;7.60;99.90;;;;;;5114292;28;20022;-65
2023/12/12 01:39:19;;;;;;;9.88;3.60;;;7.60;99.90;;;;;;5114285;28;20589;-65
2023/12/12 01:41:49;;;;;;;11.23;4.03;;;7.60;99.90;;;;;;5113913;28;20055;-66
2023/12/12 01:44:15;;;;;;;11.50;3.17;;;7.60;99.90;;;;;;5114142;28;20075;-65
2023/12/12 01:46:42;;;;;;;17.23;3.92;;;7.60;99.90;;;;;;5114082;28;20043;-65
2023/12/12 01:49:08;;;;;;;12.50;3.75;;;7.60;99.90;;;;;;5114136;28;20031;-65
2023/12/12 01:51:34;;;;;;;8.10;3.55;;;7.60;99.90;;;;;;5114001;28;20413;-65
2023/12/12 01:54:02;;;;;;;8.50;3.58;;;7.60;99.90;;;;;;5113993;28;20028;-66
2023/12/12 01:56:29;;;;;;;10.35;3.53;;;7.50;99.90;;;;;;5113916;28;20046;-66
2023/12/12 01:58:57;;;;;;;10.63;3.70;;;7.50;99.90;;;;;;5112711;28;20050;-66
2023/12/12 02:01:24;;;;;;;11.30;3.70;;;7.50;99.90;;;;;;5113577;28;20020;-65
2023/12/12 02:03:52;;;;;;;10.05;3.22;;;7.50;99.90;;;;;;5113866;28;20026;-65
2023/12/12 02:06:22;;;;;;;10.23;3.45;;;7.50;99.90;;;;;;5113853;28;20020;-66
2023/12/12 02:08:51;;;;;;;9.30;3.30;;;7.50;99.90;;;;;;5113741;28;20020;-65
2023/12/12 02:11:18;;;;;;;14.57;4.07;;;7.50;99.90;;;;;;5113545;28;20024;-65
2023/12/12 02:13:43;;;;;;;7.50;3.50;;;7.40;99.90;;;;;;5113521;28;20020;-65
2023/12/12 02:16:09;;;;;;;8.60;3.90;;;7.40;99.90;;;;;;5113517;28;20035;-65
2023/12/12 02:18:36;;;;;;;12.02;3.97;;;7.30;99.90;;;;;;5113491;28;20031;-65
2023/12/12 02:21:02;;;;;;;8.23;2.92;;;7.30;99.90;;;;;;5112886;28;20079;-65
2023/12/12 02:23:28;;;;;;;10.05;3.35;;;7.30;99.90;;;;;;5113315;28;20020;-66
2023/12/12 02:25:54;;;;;;;11.70;4.05;;;7.20;99.90;;;;;;5112388;28;20058;-66
2023/12/12 02:28:21;;;;;;;8.10;3.33;;;7.30;99.90;;;;;;5113421;28;20048;-66
2023/12/12 02:30:46;;;;;;;12.32;3.30;;;7.30;99.90;;;;;;5113093;28;20030;-66
2023/12/12 02:33:12;;;;;;;10.98;3.47;;;7.30;99.90;;;;;;5113015;28;20024;-66
2023/12/12 02:35:38;;;;;;;11.55;3.38;;;7.30;99.90;;;;;;5113044;28;20078;-66
2023/12/12 02:38:03;;;;;;;10.63;3.35;;;7.30;99.90;;;;;;5112071;28;20058;-66
2023/12/12 02:40:29;;;;;;;7.10;3.75;;;7.30;99.90;;;;;;5113032;28;20053;-65
2023/12/12 02:42:55;;;;;;;8.55;3.28;;;7.40;99.90;;;;;;5112992;28;20024;-65
2023/12/12 02:45:20;;;;;;;12.32;3.83;;;7.40;99.90;;;;;;5112079;28;20036;-65
2023/12/12 02:47:46;;;;;;;11.88;3.85;;;7.50;99.90;;;;;;5112922;28;20036;-65
2023/12/12 02:50:12;;;;;;;7.95;3.28;;;7.50;99.90;;;;;;5112916;28;20035;-65
2023/12/12 02:52:37;;;;;;;10.27;3.30;;;7.50;99.90;;;;;;5112766;28;20020;-66
2023/12/12 02:55:03;;;;;;;9.60;3.55;;;7.50;99.90;;;;;;5112918;28;20028;-66
2023/12/12 02:57:29;;;;;;;10.20;3.30;;;7.50;99.90;;;;;;5112831;28;20051;-66
2023/12/12 02:59:54;;;;;;;8.15;3.70;;;7.40;99.90;;;;;;5112599;28;20016;-66
2023/12/12 03:02:20;;;;;;;11.10;3.20;;;7.40;99.90;;;;;;5112748;28;20031;-65
2023/12/12 03:04:46;;;;;;;16.10;3.85;;;7.40;99.90;;;;;;5112670;28;20038;-65
2023/12/12 03:07:12;;;;;;;8.32;3.35;;;7.40;99.90;;;;;;5112614;28;20486;-65
2023/12/12 03:09:38;;;;;;;9.75;3.50;;;7.30;99.90;;;;;;5112655;28;20050;-65
2023/12/12 03:12:04;;;;;;;9.15;3.10;;;7.30;99.90;;;;;;5112570;28;20052;-66
2023/12/12 03:14:30;;;;;;;11.77;3.25;;;7.30;99.90;;;;;;5112610;28;20032;-66
2023/12/12 03:16:59;;;;;;;7.18;3.40;;;7.20;99.90;;;;;;5112652;28;20102;-65
2023/12/12 03:19:24;;;;;;;9.43;3.33;;;7.30;99.90;;;;;;5112553;28;20013;-65
2023/12/12 03:21:50;;;;;;;9.13;3.35;;;7.30;99.90;;;;;;5112402;28;20067;-66
2023/12/12 03:24:19;;;;;;;11.75;3.00;;;7.20;99.90;;;;;;5112611;28;20025;-65
2023/12/12 03:26:44;;;;;;;7.00;2.88;;;7.30;99.90;;;;;;5112607;28;20032;-66
2023/12/12 03:29:10;;;;;;;11.77;4.00;;;7.30;99.90;;;;;;5112284;28;20031;-65
2023/12/12 03:31:36;;;;;;;11.55;3.55;;;7.30;99.90;;;;;;5112572;28;20036;-66
2023/12/12 03:34:02;;;;;;;9.52;3.45;;;7.40;99.90;;;;;;5116623;28;20039;-66
2023/12/12 03:36:27;;;;;;;10.85;4.22;;;7.40;99.90;;;;;;5116616;28;20052;-66
2023/12/12 03:38:53;;;;;;;12.65;4.00;;;7.50;99.90;;;;;;5116516;28;20031;-66
2023/12/12 03:41:18;;;;;;;16.20;3.80;;;7.50;99.90;;;;;;5116316;28;20044;-66
2023/12/12 03:43:44;;;;;;;14.55;3.80;;;7.60;99.90;;;;;;5116444;28;20039;-66
2023/12/12 03:46:13;;;;;;;17.75;4.00;;;7.60;99.90;;;;;;5116416;28;20494;-66
2023/12/12 03:48:39;;;;;;;13.88;4.15;;;7.70;99.90;;;;;;5116295;28;20103;-66
2023/12/12 03:51:08;;;;;;;13.73;3.65;;;7.70;99.90;;;;;;5116243;28;20024;-66
2023/12/12 03:53:34;;;;;;;15.15;3.95;;;7.70;99.90;;;;;;5116139;28;20046;-66
2023/12/12 03:56:00;;;;;;;14.82;3.67;;;7.70;99.90;;;;;;5116248;28;20470;-66
2023/12/12 03:58:25;;;;;;;13.60;4.00;;;7.70;99.90;;;;;;5115229;28;20016;-65
2023/12/12 04:00:51;;;;;;;13.52;4.03;;;7.70;99.90;;;;;;5115958;28;20434;-67
2023/12/12 04:03:16;;;;;;;12.50;3.60;;;7.70;99.90;;;;;;5115966;28;20087;-65
2023/12/12 04:05:42;;;;;;;26.33;4.70;;;7.70;99.90;;;;;;5116019;28;20024;-66
2023/12/12 04:08:08;;;;;;;14.45;3.85;;;7.80;99.90;;;;;;5115989;28;20095;-65
2023/12/12 04:10:34;;;;;;;18.45;4.47;;;7.90;99.90;;;;;;5114925;28;20050;-65
2023/12/12 04:13:00;;;;;;;15.50;3.50;;;7.90;99.90;;;;;;5114711;28;20021;-65
2023/12/12 04:15:25;;;;;;;12.07;3.53;;;7.90;99.90;;;;;;5115870;28;20059;-66
2023/12/12 04:17:51;;;;;;;20.20;4.25;;;7.90;99.90;;;;;;5115732;28;20047;-67
2023/12/12 04:20:17;;;;;;;14.63;3.92;;;8.00;99.90;;;;;;5115680;28;20085;-66
2023/12/12 04:22:42;;;;;;;15.20;3.92;;;8.00;99.90;;;;;;5115750;28;20020;-65
2023/12/12 04:25:10;;;;;;;13.35;3.50;;;8.00;99.90;;;;;;5115653;28;20043;-66
2023/12/12 04:27:36;;;;;;;14.68;3.75;;;8.00;99.90;;;;;;5115594;28;20024;-66
2023/12/12 04:30:04;;;;;;;15.45;3.95;;;8.10;99.90;;;;;;5114280;28;20054;-66
2023/12/12 04:32:30;;;;;;;19.13;3.92;;;8.10;99.90;;;;;;5115331;28;20020;-65
2023/12/12 04:34:56;;;;;;;12.57;3.40;;;8.10;99.90;;;;;;5115354;28;20069;-66
2023/12/12 04:37:22;;;;;;;19.88;3.55;;;8.10;99.90;;;;;;5115437;28;20020;-66
2023/12/12 04:39:47;;;;;;;15.45;3.30;;;8.10;99.90;;;;;;5115339;28;20028;-66
2023/12/12 04:42:13;;;;;;;11.68;3.90;;;8.10;99.90;;;;;;5114123;28;20126;-66
2023/12/12 04:44:41;;;;;;;15.68;3.53;;;8.10;99.90;;;;;;5113796;28;20020;-65
2023/12/12 04:47:07;;;;;;;14.77;3.20;;;8.10;99.90;;;;;;5114027;28;20020;-66
2023/12/12 04:49:33;;;;;;;11.82;2.88;;;8.00;99.90;;;;;;5114075;28;20024;-65
2023/12/12 04:51:59;;;;;;;9.80;3.08;;;8.00;99.90;;;;;;5113979;28;20474;-66
2023/12/12 04:54:24;;;;;;;11.90;3.35;;;7.90;99.90;;;;;;5113889;28;20020;-66
2023/12/12 04:56:50;;;;;;;14.90;3.65;;;7.90;99.90;;;;;;5113943;28;20028;-65
2023/12/12 04:59:16;;;;;;;9.75;3.03;;;7.80;99.90;;;;;;5113629;28;20031;-65
2023/12/12 05:01:42;;;;;;;10.48;3.45;;;7.70;99.90;;;;;;5113694;28;20089;-66
2023/12/12 05:04:08;;;;;;;15.32;3.40;;;7.70;99.90;;;;;;5113817;28;20017;-66
2023/12/12 05:06:34;;;;;;;13.75;2.85;;;7.70;99.90;;;;;;5113601;28;20043;-66
2023/12/12 05:08:59;;;;;;;17.48;3.45;;;7.70;99.90;;;;;;5113796;28;20056;-66
2023/12/12 05:11:25;;;;;;;14.20;3.88;;;7.70;99.90;;;;;;5113646;28;20028;-66
2023/12/12 05:13:51;;;;;;;12.95;3.42;;;7.70;99.90;;;;;;5113622;28;20024;-65
2023/12/12 05:16:16;;;;;;;16.40;5.82;;;7.80;99.90;;;;;;5113586;28;20028;-65
2023/12/12 05:18:42;;;;;;;21.02;5.07;;;7.80;99.90;;;;;;5113594;28;20035;-65
2023/12/12 05:21:07;;;;;;;16.52;4.03;;;7.80;99.90;;;;;;5113455;28;20032;-65
2023/12/12 05:23:33;;;;;;;15.20;3.63;;;7.80;99.90;;;;;;5113536;28;20053;-65
2023/12/12 05:25:59;;;;;;;14.32;3.80;;;7.80;99.90;;;;;;5113482;28;20036;-65
2023/12/12 05:28:24;;;;;;;14.10;3.85;;;7.80;99.90;;;;;;5113399;28;20038;-65
2023/12/12 05:30:50;;;;;;;18.63;4.88;;;7.80;99.90;;;;;;5113051;28;20067;-66
2023/12/12 05:33:15;;;;;;;12.68;4.00;;;7.90;99.90;;;;;;5113241;28;20031;-66
2023/12/12 05:35:41;;;;;;;9.50;3.53;;;7.80;99.90;;;;;;5113289;28;20578;-66
2023/12/12 05:38:07;;;;;;;17.42;3.85;;;7.90;99.90;;;;;;5113247;28;20054;-65
2023/12/12 05:40:33;;;;;;;15.20;3.95;;;7.90;99.90;;;;;;5072581;28;1153606;-66
2023/12/12 05:42:59;;;;;;;11.88;3.47;;;7.90;99.90;;;;;;5114178;28;20047;-65
2023/12/12 05:45:25;;;;;;;16.38;4.22;;;7.90;99.90;;;;;;5113960;28;20261;-65
2023/12/12 05:47:50;;;;;;;16.38;4.15;;;8.00;99.90;;;;;;5113032;28;20048;-65
2023/12/12 05:50:16;;;;;;;19.27;4.50;;;8.00;99.90;;;;;;5113979;28;20024;-65
2023/12/12 05:52:41;;;;;;;12.93;3.65;;;8.10;99.90;;;;;;5113880;28;20047;-65
2023/12/12 05:55:08;;;;;;;17.52;5.05;;;8.10;99.90;;;;;;5113097;28;20032;-65
2023/12/12 05:57:34;;;;;;;18.30;4.40;;;8.10;99.90;;;;;;5113808;28;20009;-66
2023/12/12 06:00:00;;;;;;;15.18;4.07;;;8.20;99.90;;;;;;5113520;28;20031;-66
2023/12/12 06:02:26;;;;;;;14.77;3.70;;;8.20;99.90;;;;;;5113699;28;20028;-67
2023/12/12 06:04:52;;;;;;;26.83;5.63;;;8.30;99.90;;;;;;5113684;28;20027;-65
2023/12/12 06:07:18;;;;;;;21.73;4.75;;;8.30;99.90;;;;;;5113672;28;20043;-66
2023/12/12 06:09:44;;;;;;;14.30;4.53;;;8.30;99.90;;;;;;5113746;28;20099;-66
2023/12/12 06:12:09;;;;;;;22.73;4.93;;;8.30;99.90;;;;;;5113590;28;20032;-66
2023/12/12 06:14:35;;;;;;;15.45;4.15;;;8.30;99.90;;;;;;5113416;28;20090;-65
2023/12/12 06:17:02;;;;;;;19.00;4.03;;;8.40;99.90;;;;;;5113442;28;20429;-66
2023/12/12 06:19:28;;;;;;;18.67;4.18;;;8.40;99.90;;;;;;5113475;28;20045;-66
2023/12/12 06:21:54;;;;;;;21.23;3.88;;;8.40;99.90;;;;;;5113267;28;20085;-66
2023/12/12 06:24:20;;;;;;;14.13;3.20;;;8.40;99.90;;;;;;5113290;28;20021;-66
2023/12/12 06:26:46;;;;;;;16.90;3.90;;;8.50;99.90;;;;;;5113311;28;20024;-66
2023/12/12 06:29:12;;;;;;;13.32;3.40;;;8.50;99.90;;;;;;5112972;28;20035;-66
2023/12/12 06:31:39;;;;;;;14.90;4.18;;;8.40;99.90;;;;;;5113154;28;20073;-65
2023/12/12 06:34:05;;;;;;;19.63;4.63;;;8.50;99.90;;;;;;5113185;28;20470;-66
2023/12/12 06:36:31;;;;;;;16.95;4.25;;;8.40;99.90;;;;;;5113106;28;20024;-65
2023/12/12 06:38:56;;;;;;;22.48;4.45;;;8.40;99.90;;;;;;5112154;28;20039;-66
2023/12/12 06:41:22;;;;;;;11.70;3.00;;;8.40;99.90;;;;;;5113012;28;20109;-64
2023/12/12 06:43:48;;;;;;;19.58;3.67;;;8.40;99.90;;;;;;5112901;28;20031;-66
2023/12/12 06:46:20;;;;;;;17.20;4.00;;;8.40;99.90;;;;;;5113013;28;20024;-65
2023/12/12 06:48:45;;;;;;;20.33;4.18;;;8.40;99.90;;;;;;5112991;28;20027;-66
2023/12/12 06:51:11;;;;;;;12.93;4.38;;;8.40;99.90;;;;;;5112929;28;20028;-65
2023/12/12 06:53:37;;;;;;;12.00;3.58;;;8.40;99.90;;;;;;5112789;28;20031;-65
2023/12/12 06:56:03;;;;;;;17.98;4.05;;;8.50;99.90;;;;;;5112816;28;20041;-65
2023/12/12 06:58:29;;;;;;;13.35;3.80;;;8.40;99.90;;;;;;5111647;28;20048;-65
2023/12/12 07:00:55;;;;;;;10.93;3.20;;;8.40;99.90;;;;;;5112522;28;20058;-65
2023/12/12 07:03:24;;;;;;;17.23;4.38;;;8.40;99.90;;;;;;5112766;28;20028;-67
2023/12/12 07:05:52;;;;;;;19.38;3.85;;;8.50;99.90;;;;;;5112647;28;20036;-66
2023/12/12 07:08:21;;;;;;;18.70;4.53;;;8.50;99.90;;;;;;5112762;28;20038;-65
2023/12/12 07:10:47;;;;;;;15.38;3.80;;;8.50;99.90;;;;;;5112598;28;20543;-66
2023/12/12 07:13:13;;;;;;;15.98;3.30;;;8.40;99.90;;;;;;5112561;28;20084;-67
2023/12/12 07:15:40;;;;;;;11.48;3.90;;;8.40;99.90;;;;;;5112616;28;20020;-65
2023/12/12 07:18:11;;;;;;;14.63;4.03;;;8.40;99.90;;;;;;5112609;28;20048;-65
2023/12/12 07:20:41;;;;;;;15.35;4.55;;;8.30;99.90;;;;;;5079297;28;20089;-66
2023/12/12 07:23:07;;;;;;;19.42;5.25;;;8.20;99.90;;;;;;5112573;28;20027;-64
2023/12/12 07:25:34;;;;;;;11.98;4.68;;;8.20;99.90;;;;;;5112441;28;20394;-66
2023/12/12 07:27:59;;;;;;;17.73;4.60;;;8.20;99.90;;;;;;5112585;28;20082;-65
2023/12/12 07:30:27;;;;;;;27.20;5.45;;;8.10;99.90;;;;;;5112304;28;20020;-65
2023/12/12 07:32:54;;;;;;;16.30;5.18;;;8.10;99.90;;;;;;5112353;28;20044;-64
2023/12/12 07:35:20;;;;;;;22.73;5.35;;;8.10;99.90;;;;;;5112480;28;20027;-65
2023/12/12 07:37:46;;;;;;;24.67;6.20;;;8.10;99.90;;;;;;5112352;28;20024;-65
2023/12/12 07:40:11;;;;;;;23.48;6.50;;;8.10;99.90;;;;;;5112143;28;20052;-64
2023/12/12 07:42:37;;;;;;;19.85;5.95;;;8.10;99.90;;;;;;5112351;28;20024;-66
2023/12/12 07:45:03;;;;;;;20.17;6.45;;;8.10;99.90;;;;;;5112389;28;20398;-65
2023/12/12 07:47:29;;;;;;;21.55;5.35;;;8.10;99.90;;;;;;5112295;28;20016;-65
2023/12/12 07:49:55;;;;;;;20.63;6.15;;;8.10;99.90;;;;;;5112245;28;20123;-65
2023/12/12 07:52:21;;;;;;;14.23;4.88;;;8.10;99.90;;;;;;5112302;28;20036;-65
2023/12/12 07:54:47;;;;;;;14.30;4.30;;;8.10;99.90;;;;;;5112175;28;20142;-65
2023/12/12 07:57:12;;;;;;;16.27;4.68;;;8.10;99.90;;;;;;5112186;28;20024;-65
2023/12/12 07:59:38;;;;;;;19.20;5.50;;;8.10;99.90;;;;;;5111982;28;20043;-65
2023/12/12 08:02:04;;;;;;;21.02;5.18;;;8.10;99.90;;;;;;5112106;28;20028;-66
2023/12/12 08:04:30;;;;;;;20.13;4.85;;;8.10;99.90;;;;;;5111195;28;20027;-65
2023/12/12 08:06:56;;;;;;;15.80;4.90;;;8.10;99.90;;;;;;5112160;28;20024;-65
2023/12/12 08:09:23;;;;;;;15.38;5.10;;;8.20;99.90;;;;;;5112140;28;20028;-65
2023/12/12 08:11:48;;;;;;;20.13;6.05;;;8.20;99.90;;;;;;5112116;28;20035;-66
2023/12/12 08:14:14;;;;;;;15.85;4.72;;;8.30;99.90;;;;;;5112067;28;20024;-65
2023/12/12 08:16:39;;;;;;;18.80;4.97;;;8.30;99.90;;;;;;5110953;28;20039;-65
2023/12/12 08:19:05;;;;;;;22.42;5.53;;;8.30;99.90;;;;;;5114464;28;20020;-66
2023/12/12 08:21:31;;;;;;;16.45;5.75;;;8.40;99.90;;;;;;5115537;28;20050;-66
2023/12/12 08:23:56;;;;;;;16.80;5.05;;;8.40;99.90;;;;;;5115669;28;20314;-65
2023/12/12 08:26:22;;;;;;;17.50;5.45;;;8.40;99.90;;;;;;5115691;28;20020;-66
2023/12/12 08:28:49;;;;;;;15.73;5.57;;;8.50;99.90;;;;;;5115622;28;20025;-65
2023/12/12 08:31:14;;;;;;;15.15;5.07;;;8.50;99.90;;;;;;5115430;28;20028;-65
2023/12/12 08:33:40;;;;;;;18.60;5.57;;;8.50;99.90;;;;;;5115441;28;20151;-66
2023/12/12 08:36:06;;;;;;;20.83;5.57;;;8.50;99.90;;;;;;5115327;28;20035;-67
2023/12/12 08:38:32;;;;;;;21.02;5.28;;;8.60;99.90;;;;;;5115336;28;20035;-66
2023/12/12 08:40:58;;;;;;;17.25;5.25;;;8.60;99.90;;;;;;5115295;28;20044;-66
2023/12/12 08:43:24;;;;;;;18.48;5.55;;;8.60;99.90;;;;;;5115281;28;20036;-65
2023/12/12 08:45:52;;;;;;;14.82;4.82;;;8.70;99.90;;;;;;5115293;28;20043;-66
2023/12/12 08:48:18;;;;;;;15.38;5.13;;;8.70;99.90;;;;;;5115274;28;20024;-65
2023/12/12 08:50:44;;;;;;;20.40;4.55;;;8.70;99.90;;;;;;5114008;28;20093;-65
2023/12/12 08:53:10;;;;;;;19.92;4.72;;;8.80;99.90;;;;;;5115026;28;20024;-66
2023/12/12 08:55:36;;;;;;;22.15;5.60;;;8.80;99.90;;;;;;5115113;28;20039;-66
2023/12/12 08:58:01;;;;;;;16.85;6.00;;;8.80;99.90;;;;;;5115000;28;20047;-65
2023/12/12 09:00:27;;;;;;;14.68;4.07;;;8.80;99.90;;;;;;5114790;28;20522;-65
2023/12/12 09:02:53;;;;;;;18.77;4.60;;;8.90;99.90;;;;;;5114919;28;20036;-65
2023/12/12 09:05:18;;;;;;;20.25;4.88;;;8.90;99.90;;;;;;5114810;28;20047;-66
2023/12/12 09:07:44;;;;;;;13.10;4.70;;;8.90;99.90;;;;;;5114768;28;20040;-66
2023/12/12 09:10:10;;;;;;;20.02;4.78;;;9.00;99.90;;;;;;5113794;28;20032;-66
2023/12/12 09:12:35;;;;;;;19.63;4.55;;;9.00;99.90;;;;;;5114624;28;20028;-65
2023/12/12 09:15:02;;;;;;;14.93;4.75;;;9.00;99.90;;;;;;5114704;28;20024;-66
2023/12/12 09:17:27;;;;;;;18.23;4.53;;;9.00;99.90;;;;;;5114623;28;20020;-66
2023/12/12 09:19:53;;;;;;;17.58;4.55;;;9.10;99.90;;;;;;5114446;28;20029;-66
2023/12/12 09:22:19;;;;;;;24.73;5.40;;;9.10;99.90;;;;;;5114525;28;20110;-66
2023/12/12 09:24:44;;;;;;;18.60;4.68;;;9.20;99.90;;;;;;5114530;28;20024;-65
2023/12/12 09:27:10;;;;;;;21.60;5.03;;;9.20;99.90;;;;;;5114580;28;20050;-65
2023/12/12 09:29:35;;;;;;;23.77;5.53;;;9.20;99.90;;;;;;5113199;28;20021;-65
2023/12/12 09:32:01;;;;;;;19.23;5.20;;;9.20;99.90;;;;;;5114381;28;20047;-65
2023/12/12 09:34:27;;;;;;;14.48;4.03;;;9.30;99.90;;;;;;5114260;28;20028;-66
2023/12/12 09:36:52;;;;;;;18.05;4.60;;;9.20;99.90;;;;;;5114168;28;20039;-65
2023/12/12 09:39:18;;;;;;;16.55;4.38;;;9.30;99.90;;;;;;5113200;28;20043;-66
2023/12/12 09:41:47;;;;;;;14.98;4.07;;;9.40;99.90;;;;;;5114024;28;20052;-65
2023/12/12 09:44:17;;;;;;;15.38;4.95;;;9.40;99.90;;;;;;5114204;28;20031;-65
2023/12/12 09:46:43;;;;;;;19.38;4.38;;;9.50;99.90;;;;;;5114194;28;20039;-65
2023/12/12 09:49:11;;;;;;;17.48;4.72;;;9.60;99.90;;;;;;5113936;28;20020;-65
2023/12/12 09:51:41;;;;;;;23.77;5.30;;;9.70;99.90;;;;;;5113837;28;20051;-65
2023/12/12 09:54:07;;;;;;;20.05;5.45;;;9.70;99.90;;;;;;5114005;28;20024;-65
2023/12/12 09:56:37;;;;;;;13.52;4.18;;;9.80;99.90;;;;;;5113871;28;20032;-66
2023/12/12 09:59:03;;;;;;;15.88;3.92;;;9.90;99.90;;;;;;5112774;28;20035;-65
2023/12/12 10:01:33;;;;;;;14.77;3.95;;;10.00;99.90;;;;;;5113559;28;20103;-66
2023/12/12 10:04:00;;;;;;;18.83;4.50;;;10.00;99.90;;;;;;5113769;28;20038;-65
2023/12/12 10:06:28;;;;;;;11.73;3.70;;;10.10;99.90;;;;;;5113708;28;20033;-66
2023/12/12 10:08:57;;;;;;;14.27;3.55;;;10.20;99.90;;;;;;5113731;28;20024;-67
2023/12/12 10:11:22;;;;;;;10.18;3.22;;;10.30;99.90;;;;;;5113712;28;20016;-67
2023/12/12 10:13:54;;;;;;;11.27;3.33;;;10.40;99.90;;;;;;5112637;28;20024;-67
2023/12/12 10:16:20;;;;;;;15.10;3.95;;;10.50;99.90;;;;;;5113273;28;20023;-67
2023/12/12 10:18:50;;;;;;;12.73;3.88;;;10.50;99.90;;;;;;5113285;28;20106;-67
2023/12/12 10:21:20;;;;;;;12.23;3.42;;;10.50;99.90;;;;;;5113238;28;20016;-66
2023/12/12 10:23:53;;;;;;;14.95;4.20;;;10.60;99.90;;;;;;5113183;28;20035;-66
2023/12/12 10:26:32;;;;;;;;;;;10.60;99.90;;;;;;5112546;28;20028;-67
2023/12/12 10:29:00;;;;;;;9.30;3.17;;;10.70;99.90;;;;;;5113236;28;19919;-67
2023/12/12 10:31:26;;;;;;;13.07;3.83;;;10.70;99.90;;;;;;5112981;28;20076;-66
2023/12/12 10:33:54;;;;;;;14.63;4.10;;;10.70;99.90;;;;;;5112878;28;20043;-67
2023/12/12 10:36:21;;;;;;;14.38;3.55;;;10.80;99.90;;;;;;5112823;28;20055;-67
2023/12/12 10:38:46;;;;;;;9.48;4.10;;;10.80;99.90;;;;;;5112960;28;20026;-67
2023/12/12 10:41:19;;;;;;;8.18;3.53;;;10.90;99.90;;;;;;5112307;28;20071;-67
2023/12/12 10:43:46;;;;;;;18.20;3.67;;;11.00;99.90;;;;;;5112608;28;20036;-67
2023/12/12 10:46:16;;;;;;;10.02;3.30;;;11.00;99.90;;;;;;5112831;28;20020;-69
2023/12/12 10:48:47;;;;;;;10.00;3.22;;;11.10;99.90;;;;;;5112742;28;20028;-68
2023/12/12 10:51:17;;;;;;;12.63;3.60;;;11.10;99.90;;;;;;5112637;28;20024;-68
2023/12/12 10:53:44;;;;;;;9.48;3.15;;;11.20;99.90;;;;;;5111339;28;20024;-69
2023/12/12 10:56:11;;;;;;;11.02;3.05;;;11.30;99.90;;;;;;5112679;28;20050;-69
2023/12/12 10:58:39;;;;;;;9.73;2.88;;;11.30;99.90;;;;;;5112423;28;20083;-69
2023/12/12 11:01:10;;;;;;;12.95;3.03;;;11.50;99.90;;;;;;5112321;28;20047;-69
2023/12/12 11:03:36;;;;;;;7.25;3.13;;;11.50;99.90;;;;;;5112340;28;20027;-70
2023/12/12 11:06:04;;;;;;;7.70;3.03;;;11.60;99.90;;;;;;5110887;28;20036;-69
2023/12/12 11:08:30;;;;;;;11.32;3.63;;;11.70;99.90;;;;;;5112134;28;20106;-68
2023/12/12 11:10:56;;;;;;;9.52;3.35;;;11.90;99.90;;;;;;5112513;28;20054;-69
2023/12/12 11:13:27;;;;;;;12.07;3.17;;;12.00;99.90;;;;;;5112141;28;20067;-68
2023/12/12 11:15:57;;;;;;;6.82;2.50;;;12.10;99.90;;;;;;5112058;28;20062;-69
2023/12/12 11:18:23;;;;;;;11.02;2.47;;;12.20;99.90;;;;;;5112306;28;20031;-69
2023/12/12 11:20:48;;;;;;;5.88;2.10;;;12.30;99.90;;;;;;5111978;28;20024;-68
2023/12/12 11:23:42;;;;;;;4.38;2.00;;;12.40;99.90;;;;;;5112271;28;20530;-67
2023/12/12 11:26:09;;;;;;;6.00;1.70;;;12.50;99.90;;;;;;5112274;28;20039;-68
2023/12/12 11:28:36;;;;;;;5.97;1.90;;;12.50;99.90;;;;;;5112336;28;20061;-67
2023/12/12 11:31:02;;;;;;;8.15;2.10;;;12.60;99.90;;;;;;5111990;28;20023;-68
2023/12/12 11:33:31;;;;;;;7.47;1.73;;;12.60;99.90;;;;;;5112051;28;20083;-69
2023/12/12 11:35:57;;;;;;;9.60;1.95;;;12.60;99.90;;;;;;5112072;28;20032;-69
2023/12/12 11:38:33;;;;;;;5.20;1.70;;;12.60;99.90;;;;;;5112107;28;20027;-69
2023/12/12 11:41:14;;;;;;;5.75;1.90;;;12.70;99.90;;;;;;5112090;28;20055;-69
2023/12/12 11:43:41;;;;;;;4.95;1.80;;;12.60;99.90;;;;;;5111790;28;20042;-70
2023/12/12 11:46:20;;;;;;;11.15;2.67;;;12.60;99.90;;;;;;5112043;28;20020;-70
2023/12/12 11:48:45;;;;;;;5.55;2.35;;;12.60;99.90;;;;;;5112077;28;20050;-71
2023/12/12 11:51:33;;;;;;;8.05;2.30;;;12.50;99.90;;;;;;5111979;28;20048;-72
2023/12/12 11:54:02;;;;;;;9.68;2.35;;;12.40;99.90;;;;;;5114227;28;20032;-70
2023/12/12 11:56:28;;;;;;;6.30;2.13;;;12.40;99.90;;;;;;5115233;28;20016;-70
2023/12/12 11:58:55;;;;;;;11.85;1.95;;;12.30;99.90;;;;;;5116032;28;20028;-69
2023/12/12 12:01:25;;;;;;;7.22;2.17;;;12.30;99.90;;;;;;5115650;28;20206;-69
2023/12/12 12:03:52;;;;;;;7.03;2.08;;;12.40;99.90;;;;;;5115798;28;20020;-69
2023/12/12 12:06:18;;;;;;;9.38;2.20;;;12.50;99.90;;;;;;5115627;28;20077;-70
2023/12/12 12:08:44;;;;;;;9.18;2.70;;;12.50;99.90;;;;;;5114629;28;20036;-70
2023/12/12 12:11:11;;;;;;;5.53;3.08;;;12.50;99.90;;;;;;5115786;28;20032;-70
2023/12/12 12:13:40;;;;;;;4.47;2.50;;;12.40;99.90;;;;;;5115477;28;20020;-70
2023/12/12 12:16:07;;;;;;;6.60;2.33;;;12.40;99.90;;;;;;5115331;28;20020;-69
2023/12/12 12:18:33;;;;;;;6.03;2.40;;;12.40;99.90;;;;;;5115485;28;20020;-68
2023/12/12 12:20:58;;;;;;;5.60;2.70;;;12.40;99.90;;;;;;5115439;28;20035;-68
2023/12/12 12:23:24;;;;;;;9.20;2.50;;;12.30;99.90;;;;;;5115343;28;20028;-69
2023/12/12 12:25:50;;;;;;;6.22;2.35;;;12.30;99.90;;;;;;5115431;28;20042;-69
2023/12/12 12:28:16;;;;;;;7.82;2.33;;;12.30;99.90;;;;;;5115328;28;20024;-69
2023/12/12 12:30:46;;;;;;;8.15;2.80;;;12.20;99.90;;;;;;5115209;28;20047;-69
2023/12/12 12:33:13;;;;;;;5.95;2.40;;;12.20;99.90;;;;;;5114303;28;20032;-68
2023/12/12 12:35:50;;;;;;;5.55;2.30;;;12.20;99.90;;;;;;5115259;28;20044;-68
2023/12/12 12:38:26;;;;;;;7.00;2.42;;;12.20;99.90;;;;;;5114049;28;20058;-68
2023/12/12 12:40:52;;;;;;;6.60;2.13;;;12.10;99.90;;;;;;5115083;28;20691;-68
2023/12/12 12:43:19;;;;;;;5.25;1.98;;;12.20;99.90;;;;;;5114804;28;20032;-68
2023/12/12 12:45:45;;;;;;;7.55;2.58;;;12.10;99.90;;;;;;5114873;28;20088;-69